Terminal Aerodrome Forecast
Issued by NWS

Home | Current Version | Previous Version | Text Only | Print | Product List | Glossary On
Versions: 1 2 3 4 5 6 7 8 9 10 11 12 13 14 15 16
000
FTUS43 KEAX 200500
TAFSTJ
TAF
KSTJ 200520Z 2006/2106 08011KT P6SM -RA OVC050
     FM200800 05013KT 5SM RA OVC017
     FM201100 06011KT 4SM -RA BR OVC007
     FM201800 03010KT P6SM VCSH OVC030
     FM202300 04007KT P6SM OVC028=

USA.gov is the U.S. government's official web portal to all federal, state and local government web resources and services.